Accueil
METAR-TAF:

METAR-TAF

Aéroports :

Aéroport d'Almeria

Almería, Espagne

latitude: 36-51N, longitude: 002-23W, altitude: 15 m

Observation

Le bulletin a été fait il y a 32 minutes, à 19:30 UTC
Vent 1 kt de direction variable
Température 25°C
Humidité 89%
Pression 1013 hPa
Visibilité 10 km ou plus
pas de nuages en-dessous de 1500 mètres et pas de cumulonimbus.

METAR: LEAM 161930Z VRB01KT CAVOK 25/23 Q1013

Heure: 22:02 (20:02 UTC)

Prévision

Le bulletin a été fait il y a 3 heures et 2 minutes, à 17:00 UTC
Prévision valable du 16 à 18 UTC au 17 à 18 UTC
Vent 5 kt de sud/sud-ouest
Visibilité 10 km ou plus
pas de nuages en-dessous de 1500 mètres et pas de cumulonimbus.
Evoluant progressivement
du 17 à 02 UTC au 17 à 04 UTC
Vent 10 kt de est
Evoluant progressivement
du 17 à 08 UTC au 17 à 10 UTC
Vent 20 kt de est

TAF: LEAM 161700Z 1618/1718 20005KT CAVOK TX33/1714Z TN23/1705Z BECMG 1702/1704 09010KT BECMG 1708/1710 09020KT

Observations et prévisions météorologiques de plus de 4000 aéroports (messages METAR et TAF).

Les stations disponibles sont représentées par des disques jaunes et rouges sur la carte.

Passer la souris dessus pour voir le nom de la station.

Cliquer dessus pour voir les observations et prévisions météorologiques.

Pour changer de carte: cliquez sur les boutons verts avec une croix noire pour zoomer, sur le bouton vert avec un tiret pour effectuer un zoom arrière, ou sur les flèches vertes pour les cartes adjacentes.


METAR-TAF: